Eagle Point, Wisconsin
Current Conditions -  °F | °C
As of 12:56 AM on Thursday 18 Dec 2014 (Local Time) from KEAU Reporting Station
Overcast Overcast  
Wind Chill: 20°   Ceiling: 1500
Heat Index: 20°   Visibility: 10mi
Dew Point: 14°   Wind: 0mph
Humidity: 78%   Direction: NA
Pressure: 30.31"   Gusts: NA
Location:  44.9743°N, 91.4379°W
Report Text: KEAU 180656Z AUTO 00000KT 10SM OVC015 M07/M10 A3031 RMK AO2 SLP279 T10671100
Loading
Personal Weather Stations






























Interactive Weather Map New forecast layout! Learn more

10-Day Weather Forecast

Advertisements
Track Severe Weather on mobile